createdAt,value
2023-04-23T00:00:25.812Z,41.55
2023-04-23T00:02:54.538Z,38.42
2023-04-23T00:05:23.452Z,39.53
2023-04-23T00:07:50.551Z,34.10
2023-04-23T00:10:18.387Z,38.33
2023-04-23T00:12:45.925Z,39.60
2023-04-23T00:15:14.239Z,31.98
2023-04-23T00:17:41.223Z,38.53
2023-04-23T00:20:09.362Z,29.42
2023-04-23T00:22:36.374Z,31.50
2023-04-23T00:25:03.571Z,29.02
2023-04-23T00:27:30.571Z,29.20
2023-04-23T00:29:57.551Z,28.27
2023-04-23T00:32:24.728Z,35.65
2023-04-23T00:34:51.901Z,26.08
2023-04-23T00:37:18.733Z,31.27
2023-04-23T00:39:45.859Z,28.00
2023-04-23T00:42:12.826Z,28.40
2023-04-23T00:44:41.060Z,28.60
2023-04-23T00:47:08.317Z,26.40
2023-04-23T00:49:36.256Z,23.55
2023-04-23T00:52:06.327Z,24.00
2023-04-23T00:54:33.257Z,16.00
2023-04-23T00:57:00.472Z,24.23
2023-04-23T00:59:28.305Z,18.13
2023-04-23T01:01:56.469Z,21.92
2023-04-23T01:04:24.797Z,18.58
2023-04-23T01:06:51.945Z,21.23
2023-04-23T01:09:18.965Z,17.00
2023-04-23T01:11:47.568Z,19.55
2023-04-23T01:14:14.588Z,20.23
2023-04-23T01:16:41.657Z,19.40
2023-04-23T01:19:10.364Z,17.38
2023-04-23T01:21:40.867Z,19.52
2023-04-23T01:24:09.649Z,21.95
2023-04-23T01:26:36.521Z,26.88
2023-04-23T01:29:03.812Z,31.85
2023-04-23T01:31:31.365Z,23.45
2023-04-23T01:34:00.483Z,27.58
2023-04-23T01:36:27.512Z,24.27
2023-04-23T01:38:54.492Z,18.60
2023-04-23T01:41:22.952Z,18.83
2023-04-23T01:43:50.000Z,22.23
2023-04-23T01:46:17.126Z,23.58
2023-04-23T01:48:44.153Z,25.52
2023-04-23T01:51:11.224Z,24.05
2023-04-23T01:53:38.171Z,20.38
2023-04-23T01:56:05.746Z,23.55
2023-04-23T01:58:32.757Z,25.33
2023-04-23T02:00:59.820Z,31.92
2023-04-23T02:03:27.277Z,25.85
2023-04-23T02:05:55.749Z,26.55
2023-04-23T02:08:23.288Z,24.05
2023-04-23T02:10:50.304Z,21.20
2023-04-23T02:13:17.573Z,24.08
2023-04-23T02:15:45.098Z,24.05
2023-04-23T02:18:12.347Z,23.77
2023-04-23T02:20:41.203Z,21.83
2023-04-23T02:23:09.131Z,20.63
2023-04-23T02:25:38.722Z,20.80
2023-04-23T02:28:07.929Z,22.05
2023-04-23T02:30:35.680Z,26.70
2023-04-23T02:33:03.916Z,23.63
2023-04-23T02:35:31.665Z,23.25
2023-04-23T02:37:58.681Z,25.60
2023-04-23T02:40:25.832Z,25.65
2023-04-23T02:42:52.977Z,24.95
2023-04-23T02:45:20.066Z,23.10
2023-04-23T02:47:47.326Z,22.40
2023-04-23T02:50:14.336Z,25.58
2023-04-23T02:52:41.621Z,18.60
2023-04-23T02:55:09.688Z,17.70
2023-04-23T02:57:40.652Z,20.92
2023-04-23T03:00:08.657Z,20.35
2023-04-23T03:02:35.930Z,23.92
2023-04-23T03:05:03.035Z,19.27
2023-04-23T03:07:30.249Z,23.05
2023-04-23T03:09:57.204Z,17.45
2023-04-23T03:12:24.314Z,22.02
2023-04-23T03:14:51.394Z,19.48
2023-04-23T03:17:18.340Z,25.58
2023-04-23T03:19:45.501Z,27.27
2023-04-23T03:22:12.530Z,17.92
2023-04-23T03:24:39.790Z,21.35
2023-04-23T03:27:06.956Z,26.10
2023-04-23T03:29:34.179Z,24.83
2023-04-23T03:32:01.152Z,23.08
2023-04-23T03:34:31.320Z,16.55
2023-04-23T03:36:58.625Z,22.63
2023-04-23T03:39:25.531Z,21.70
2023-04-23T03:41:52.497Z,23.20
2023-04-23T03:44:23.305Z,22.80
2023-04-23T03:46:50.423Z,22.02
2023-04-23T03:49:17.426Z,19.50
2023-04-23T03:51:44.593Z,28.75
2023-04-23T03:54:11.727Z,21.48
2023-04-23T03:56:38.730Z,29.35
2023-04-23T03:59:05.890Z,23.67
2023-04-23T04:01:33.317Z,21.08
2023-04-23T04:04:00.431Z,19.42
2023-04-23T04:06:27.464Z,19.67
2023-04-23T04:08:54.254Z,20.27
2023-04-23T04:11:21.149Z,22.98
2023-04-23T04:13:48.100Z,25.08
2023-04-23T04:16:15.078Z,21.13
2023-04-23T04:18:42.217Z,22.90
2023-04-23T04:21:09.092Z,28.23
2023-04-23T04:23:36.528Z,25.58
2023-04-23T04:26:03.449Z,20.65
2023-04-23T04:28:30.560Z,28.02
2023-04-23T04:30:57.732Z,27.52
2023-04-23T04:33:26.090Z,24.67
2023-04-23T04:35:53.101Z,24.50
2023-04-23T04:38:20.146Z,24.92
2023-04-23T04:40:47.054Z,23.17
2023-04-23T04:43:13.957Z,19.08
2023-04-23T04:45:40.807Z,22.60
2023-04-23T04:48:07.644Z,16.58
2023-04-23T04:50:35.231Z,21.77
2023-04-23T04:53:02.049Z,20.38
2023-04-23T04:55:28.878Z,24.08
2023-04-23T04:57:56.153Z,22.17
2023-04-23T05:00:28.044Z,14.65
2023-04-23T05:02:55.581Z,15.88
2023-04-23T05:05:24.081Z,11.68
2023-04-23T05:07:51.199Z,10.30
2023-04-23T05:10:18.121Z,15.52
2023-04-23T05:12:45.069Z,13.63
2023-04-23T05:15:13.536Z,18.05
2023-04-23T05:17:41.469Z,17.30
2023-04-23T05:20:12.623Z,19.88
2023-04-23T05:22:41.474Z,17.40
2023-04-23T05:25:10.108Z,17.42
2023-04-23T05:27:36.965Z,13.95
2023-04-23T05:30:06.028Z,13.18
2023-04-23T05:32:32.978Z,14.98
2023-04-23T05:35:00.720Z,12.27
2023-04-23T05:37:27.516Z,17.55
2023-04-23T05:39:54.644Z,14.75
2023-04-23T05:42:21.927Z,17.35
2023-04-23T05:44:48.760Z,19.15
2023-04-23T05:47:15.939Z,15.75
2023-04-23T05:49:42.880Z,11.98
2023-04-23T05:52:09.724Z,12.65
2023-04-23T05:54:36.523Z,15.30
2023-04-23T05:57:04.626Z,14.85
2023-04-23T05:59:32.214Z,14.60
2023-04-23T06:01:59.140Z,17.75
2023-04-23T06:04:26.373Z,13.77
2023-04-23T06:06:53.350Z,12.75
2023-04-23T06:09:20.244Z,12.32
2023-04-23T06:11:47.207Z,14.93
2023-04-23T06:14:14.138Z,15.90
2023-04-23T06:16:40.937Z,15.95
2023-04-23T06:19:07.867Z,11.60
2023-04-23T06:21:34.687Z,30.88
2023-04-23T06:24:01.537Z,16.15
2023-04-23T06:26:28.479Z,14.40
2023-04-23T06:28:55.361Z,16.42
2023-04-23T06:31:22.270Z,13.65
2023-04-23T06:33:49.145Z,9.80
2023-04-23T06:36:16.109Z,10.85
2023-04-23T06:38:44.728Z,12.00
2023-04-23T06:41:13.133Z,11.65
2023-04-23T06:43:39.971Z,9.55
2023-04-23T06:46:06.802Z,11.05
2023-04-23T06:48:33.905Z,7.63
2023-04-23T06:51:00.794Z,9.90
2023-04-23T06:53:27.611Z,10.45
2023-04-23T06:55:54.470Z,10.63
2023-04-23T06:58:23.492Z,8.52
2023-04-23T07:00:50.415Z,9.32
2023-04-23T07:03:17.690Z,7.13
2023-04-23T07:05:44.558Z,10.90
2023-04-23T07:08:11.371Z,5.97
2023-04-23T07:10:38.366Z,13.85
2023-04-23T07:13:05.175Z,6.03
2023-04-23T07:15:31.985Z,8.43
2023-04-23T07:17:59.021Z,8.82
2023-04-23T07:20:26.347Z,7.82
2023-04-23T07:22:53.206Z,7.82
2023-04-23T07:25:21.610Z,5.30
2023-04-23T07:27:48.614Z,4.85
2023-04-23T07:30:16.361Z,7.07
2023-04-23T07:32:43.766Z,7.95
2023-04-23T07:35:11.559Z,6.97
2023-04-23T07:37:38.562Z,7.63
2023-04-23T07:40:06.248Z,11.60
2023-04-23T07:42:33.024Z,5.72
2023-04-23T07:45:00.105Z,6.28
2023-04-23T07:47:27.313Z,5.90
2023-04-23T07:49:54.192Z,6.65
2023-04-23T07:52:21.169Z,9.57
2023-04-23T07:54:48.009Z,8.60
2023-04-23T07:57:14.806Z,5.97
2023-04-23T07:59:42.054Z,8.57
2023-04-23T08:02:09.427Z,6.32
2023-04-23T08:04:36.416Z,7.25
2023-04-23T08:07:03.873Z,7.07
2023-04-23T08:09:30.716Z,6.90
2023-04-23T08:11:57.915Z,6.32
2023-04-23T08:14:24.799Z,10.73
2023-04-23T08:16:51.687Z,6.85
2023-04-23T08:19:18.693Z,10.30
2023-04-23T08:21:45.594Z,9.15
2023-04-23T08:24:12.518Z,8.90
2023-04-23T08:26:39.310Z,7.07
2023-04-23T08:29:06.292Z,7.68
2023-04-23T08:31:33.420Z,5.65
2023-04-23T08:34:00.368Z,7.80
2023-04-23T08:36:27.788Z,8.77
2023-04-23T08:38:54.900Z,7.43
2023-04-23T08:41:27.493Z,8.68
2023-04-23T08:44:03.267Z,6.90
2023-04-23T08:46:33.048Z,9.57
2023-04-23T08:49:03.355Z,7.88
2023-04-23T08:51:32.697Z,9.38
2023-04-23T08:54:05.128Z,5.78
2023-04-23T08:56:32.874Z,11.98
2023-04-23T08:59:00.028Z,11.23
2023-04-23T09:01:26.923Z,10.55
2023-04-23T09:03:54.208Z,10.10
2023-04-23T09:06:22.108Z,7.65
2023-04-23T09:08:49.189Z,7.78
2023-04-23T09:11:17.302Z,6.10
2023-04-23T09:13:44.202Z,8.38
2023-04-23T09:16:11.460Z,6.38
2023-04-23T09:18:38.933Z,5.65
2023-04-23T09:21:07.350Z,4.88
2023-04-23T09:23:34.902Z,8.68
2023-04-23T09:26:06.676Z,8.63
2023-04-23T09:28:38.124Z,7.30
2023-04-23T09:31:06.454Z,5.55
2023-04-23T09:33:35.426Z,7.18
2023-04-23T09:36:15.192Z,5.57
2023-04-23T09:38:42.187Z,9.23
2023-04-23T09:41:26.100Z,8.25
2023-04-23T09:43:57.201Z,12.73
2023-04-23T09:46:37.507Z,8.05
2023-04-23T09:49:07.966Z,8.07
2023-04-23T09:51:42.322Z,6.15
2023-04-23T09:54:27.830Z,6.60
2023-04-23T09:56:59.970Z,11.80
2023-04-23T09:59:45.959Z,9.18
2023-04-23T10:02:13.877Z,6.05
2023-04-23T10:04:42.212Z,8.80
2023-04-23T10:09:43.695Z,9.40
2023-04-23T10:12:27.846Z,8.10
2023-04-23T10:14:59.879Z,9.50
2023-04-23T10:17:27.186Z,6.00
2023-04-23T10:19:55.834Z,12.70
2023-04-23T10:22:24.345Z,8.25
2023-04-23T10:24:56.503Z,6.93
2023-04-23T10:27:36.722Z,10.20
2023-04-23T10:30:13.582Z,8.18
2023-04-23T10:32:41.240Z,11.23
2023-04-23T10:35:09.594Z,8.23
2023-04-23T10:37:37.768Z,6.70
2023-04-23T10:40:12.625Z,7.50
2023-04-23T10:42:40.940Z,7.88
2023-04-23T10:47:49.147Z,10.98
2023-04-23T10:50:58.345Z,8.10
2023-04-23T10:53:32.043Z,5.70
2023-04-23T10:56:10.307Z,8.43
2023-04-23T10:58:53.268Z,7.43
2023-04-23T11:01:22.318Z,9.90
2023-04-23T11:03:49.397Z,7.75
2023-04-23T11:06:40.198Z,8.70
2023-04-23T11:09:34.991Z,10.23
2023-04-23T11:12:02.961Z,6.88
2023-04-23T11:14:46.176Z,7.50
2023-04-23T11:17:14.450Z,6.55
2023-04-23T11:19:42.454Z,7.28
2023-04-23T11:22:19.549Z,5.93
2023-04-23T11:24:49.491Z,5.80
2023-04-23T11:27:18.460Z,6.50
2023-04-23T11:29:46.570Z,11.88
2023-04-23T11:32:17.248Z,7.03
2023-04-23T11:34:46.196Z,7.60
2023-04-23T11:37:15.584Z,7.07
2023-04-23T11:39:44.813Z,6.65
2023-04-23T11:42:15.553Z,6.35
2023-04-23T11:44:46.344Z,13.25
2023-04-23T11:47:14.667Z,12.27
2023-04-23T11:49:43.591Z,5.82
2023-04-23T11:52:11.502Z,6.32
2023-04-23T11:54:41.640Z,4.40
2023-04-23T11:57:08.772Z,9.65
2023-04-23T11:59:35.839Z,5.65
2023-04-23T12:02:02.735Z,6.13
2023-04-23T12:04:31.903Z,7.25
2023-04-23T12:06:59.576Z,7.57
2023-04-23T12:09:28.516Z,11.57
2023-04-23T12:11:58.656Z,8.50
2023-04-23T12:14:30.936Z,7.88
2023-04-23T12:17:08.769Z,8.20
2023-04-23T12:19:35.818Z,5.18
2023-04-23T12:22:04.007Z,8.05
2023-04-23T12:24:32.471Z,5.85
2023-04-23T12:27:02.956Z,9.98
2023-04-23T12:29:31.542Z,6.15
2023-04-23T12:32:00.514Z,7.47
2023-04-23T12:34:27.368Z,4.70
2023-04-23T12:36:57.808Z,9.50
2023-04-23T12:39:27.477Z,10.57
2023-04-23T12:41:56.771Z,6.72
2023-04-23T12:44:23.842Z,9.45
2023-04-23T12:47:03.663Z,10.00
2023-04-23T12:49:31.714Z,6.35
2023-04-23T12:52:01.650Z,10.80
2023-04-23T12:54:37.799Z,5.57
2023-04-23T12:57:07.095Z,8.90
2023-04-23T12:59:34.708Z,6.68
2023-04-23T13:02:03.079Z,8.73
2023-04-23T13:04:31.721Z,5.35
2023-04-23T13:06:58.597Z,5.07
2023-04-23T13:09:28.198Z,5.07
2023-04-23T13:11:55.716Z,5.35
2023-04-23T13:14:22.567Z,6.00
2023-04-23T13:16:49.806Z,6.38
2023-04-23T13:19:17.590Z,8.65
2023-04-23T13:21:45.204Z,7.85
2023-04-23T13:24:12.245Z,5.07
2023-04-23T13:26:39.160Z,7.35
2023-04-23T13:29:06.247Z,4.97
2023-04-23T13:31:33.337Z,7.07
2023-04-23T13:34:01.640Z,11.30
2023-04-23T13:36:28.681Z,9.73
2023-04-23T13:38:55.552Z,7.72
2023-04-23T13:41:22.413Z,7.32
2023-04-23T13:43:49.222Z,7.60
2023-04-23T13:46:16.869Z,8.35
2023-04-23T13:48:43.758Z,13.20
2023-04-23T13:51:21.790Z,7.65
2023-04-23T13:53:53.441Z,8.05
2023-04-23T13:56:20.351Z,12.50
2023-04-23T13:58:48.987Z,9.93
2023-04-23T14:01:16.312Z,8.65
2023-04-23T14:03:43.198Z,5.82
2023-04-23T14:06:10.056Z,6.10
2023-04-23T14:08:37.446Z,7.70
2023-04-23T14:11:04.829Z,6.57
2023-04-23T14:13:32.936Z,8.45
2023-04-23T14:16:02.018Z,4.68
2023-04-23T14:18:30.488Z,9.35
2023-04-23T14:20:57.470Z,7.55
2023-04-23T14:23:24.270Z,6.90
2023-04-23T14:25:59.718Z,6.00
2023-04-23T14:28:40.022Z,8.15
2023-04-23T14:31:07.651Z,8.45
2023-04-23T14:33:34.546Z,4.82
2023-04-23T14:36:01.451Z,6.93
2023-04-23T14:38:28.299Z,7.63
2023-04-23T14:40:56.003Z,5.70
2023-04-23T14:43:22.942Z,4.30
2023-04-23T14:45:51.137Z,6.60
2023-04-23T14:48:18.070Z,7.97
2023-04-23T14:50:45.009Z,6.13
2023-04-23T14:53:11.889Z,9.13
2023-04-23T14:55:40.138Z,6.28
2023-04-23T14:58:07.086Z,6.07
2023-04-23T15:00:34.120Z,6.13
2023-04-23T15:03:02.857Z,5.55
2023-04-23T15:05:29.997Z,6.78
2023-04-23T15:07:56.842Z,9.80
2023-04-23T15:10:23.860Z,6.97
2023-04-23T15:12:53.535Z,6.50
2023-04-23T15:15:36.851Z,6.15
2023-04-23T15:18:08.050Z,6.45
2023-04-23T15:20:34.870Z,5.10
2023-04-23T15:23:01.698Z,6.28
2023-04-23T15:25:30.100Z,5.93
2023-04-23T15:27:59.799Z,11.65
2023-04-23T15:30:27.483Z,10.77
2023-04-23T15:32:57.810Z,6.45
2023-04-23T15:35:25.852Z,6.07
2023-04-23T15:37:53.943Z,6.13
2023-04-23T15:40:20.852Z,8.38
2023-04-23T15:42:50.121Z,4.93
2023-04-23T15:45:17.276Z,10.10
2023-04-23T15:47:44.303Z,21.05
2023-04-23T15:50:11.553Z,9.48
2023-04-23T15:52:38.489Z,12.63
2023-04-23T15:55:06.570Z,12.77
2023-04-23T15:57:33.413Z,14.02
2023-04-23T16:00:00.343Z,9.73
2023-04-23T16:02:27.622Z,7.13
2023-04-23T16:04:54.835Z,6.43
2023-04-23T16:07:21.712Z,8.75
2023-04-23T16:09:48.676Z,9.57
2023-04-23T16:12:15.741Z,11.75
2023-04-23T16:14:43.028Z,10.98
2023-04-23T16:17:09.915Z,9.13
2023-04-23T16:19:37.494Z,7.32
2023-04-23T16:22:04.369Z,10.98
2023-04-23T16:24:31.408Z,9.20
2023-04-23T16:26:58.394Z,7.88
2023-04-23T16:29:25.442Z,15.88
2023-04-23T16:31:52.364Z,9.05
2023-04-23T16:34:19.259Z,7.38
2023-04-23T16:36:46.834Z,11.23
2023-04-23T16:39:13.821Z,8.63
2023-04-23T16:41:40.720Z,15.98
2023-04-23T16:44:07.570Z,7.43
2023-04-23T16:46:34.630Z,6.95
2023-04-23T16:49:01.590Z,12.38
2023-04-23T16:51:29.819Z,15.05
2023-04-23T16:53:57.241Z,13.35
2023-04-23T16:56:24.382Z,11.63
2023-04-23T16:58:51.247Z,14.07
2023-04-23T17:01:18.249Z,12.43
2023-04-23T17:03:46.145Z,10.88
2023-04-23T17:06:13.572Z,9.52
2023-04-23T17:08:40.669Z,10.48
2023-04-23T17:11:07.938Z,9.60
2023-04-23T17:13:35.140Z,9.00
2023-04-23T17:16:03.044Z,10.02
2023-04-23T17:18:30.142Z,13.88
2023-04-23T17:20:56.999Z,15.07
2023-04-23T17:23:23.982Z,10.20
2023-04-23T17:25:50.900Z,10.93
2023-04-23T17:28:20.287Z,12.90
2023-04-23T17:30:50.604Z,19.75
2023-04-23T17:33:18.206Z,11.88
2023-04-23T17:35:45.249Z,11.48
2023-04-23T17:38:12.836Z,17.70
2023-04-23T17:40:39.841Z,18.48
2023-04-23T17:43:08.208Z,26.88
2023-04-23T17:45:35.151Z,19.75
2023-04-23T17:48:02.220Z,16.95
2023-04-23T17:50:30.092Z,20.17
2023-04-23T17:52:57.573Z,26.08
2023-04-23T17:55:24.858Z,19.90
2023-04-23T17:57:51.866Z,27.75
2023-04-23T18:00:19.659Z,22.73
2023-04-23T18:02:46.787Z,24.58
2023-04-23T18:05:15.880Z,22.48
2023-04-23T18:07:43.880Z,22.05
2023-04-23T18:10:14.481Z,15.73
2023-04-23T18:12:41.469Z,24.10
2023-04-23T18:15:11.312Z,18.08
2023-04-23T18:17:38.764Z,34.65
2023-04-23T18:20:06.798Z,24.80
2023-04-23T18:22:33.958Z,21.90
2023-04-23T18:25:02.264Z,24.00
2023-04-23T18:27:29.225Z,21.45
2023-04-23T18:29:57.963Z,18.52
2023-04-23T18:32:34.072Z,29.85
2023-04-23T18:35:02.563Z,30.58
2023-04-23T18:37:42.708Z,44.95
2023-04-23T18:40:11.006Z,29.52
2023-04-23T18:42:37.946Z,45.35
2023-04-23T18:45:05.149Z,49.60
2023-04-23T18:47:37.179Z,42.05
2023-04-23T18:50:09.699Z,48.63
2023-04-23T18:52:36.920Z,49.88
2023-04-23T18:55:03.919Z,42.08
2023-04-23T18:57:30.729Z,39.40
2023-04-23T18:59:57.529Z,38.83
2023-04-23T19:02:34.570Z,38.05
2023-04-23T19:05:02.840Z,40.70
2023-04-23T19:07:29.804Z,36.47
2023-04-23T19:09:56.615Z,37.50
2023-04-23T19:12:23.461Z,39.53
2023-04-23T19:14:50.385Z,39.15
2023-04-23T19:17:18.770Z,41.72
2023-04-23T19:19:46.305Z,47.78
2023-04-23T19:22:13.213Z,30.98
2023-04-23T19:24:40.023Z,31.98
2023-04-23T19:27:07.330Z,45.33
2023-04-23T19:29:34.274Z,42.50
2023-04-23T19:32:01.415Z,52.60
2023-04-23T19:34:28.217Z,46.72
2023-04-23T19:36:55.150Z,52.83
2023-04-23T19:39:23.806Z,53.45
2023-04-23T19:41:50.849Z,49.22
2023-04-23T19:44:17.738Z,44.58
2023-04-23T19:46:44.600Z,50.80
2023-04-23T19:49:11.456Z,45.08
2023-04-23T19:51:39.728Z,38.30
2023-04-23T19:54:06.626Z,46.35
2023-04-23T19:56:33.443Z,42.92
2023-04-23T19:59:00.619Z,41.20
2023-04-23T20:01:30.089Z,31.05
2023-04-23T20:03:57.358Z,37.53
2023-04-23T20:06:24.342Z,33.55
2023-04-23T20:09:09.737Z,33.97
2023-04-23T20:11:36.731Z,26.63
2023-04-23T20:14:04.126Z,23.63
2023-04-23T20:16:31.086Z,25.88
2023-04-23T20:18:58.183Z,25.77
2023-04-23T20:21:25.559Z,23.25
2023-04-23T20:23:52.418Z,24.95
2023-04-23T20:26:20.289Z,26.80
2023-04-23T20:28:48.458Z,31.98
2023-04-23T20:31:15.707Z,22.45
2023-04-23T20:33:42.660Z,22.77
2023-04-23T20:36:11.060Z,29.27
2023-04-23T20:38:39.163Z,30.27
2023-04-23T20:41:06.845Z,30.75
2023-04-23T20:43:36.097Z,28.83
2023-04-23T20:46:03.234Z,29.38
2023-04-23T20:48:30.627Z,15.10
2023-04-23T20:50:58.084Z,14.57
2023-04-23T20:53:26.735Z,31.17
2023-04-23T20:55:53.635Z,29.48
2023-04-23T20:58:20.500Z,25.75
2023-04-23T21:00:48.034Z,39.10
2023-04-23T21:03:15.102Z,48.60
2023-04-23T21:05:44.457Z,53.35
2023-04-23T21:08:11.825Z,52.42
2023-04-23T21:10:39.653Z,60.75
2023-04-23T21:13:12.303Z,42.95
2023-04-23T21:15:39.801Z,46.78
2023-04-23T21:18:08.377Z,42.70
2023-04-23T21:20:36.430Z,39.33
2023-04-23T21:23:03.388Z,49.45
2023-04-23T21:25:32.589Z,45.20
2023-04-23T21:27:59.653Z,37.42
2023-04-23T21:30:48.187Z,48.90
2023-04-23T21:33:15.822Z,41.50
2023-04-23T21:35:43.750Z,43.42
2023-04-23T21:38:11.600Z,44.78
2023-04-23T21:40:39.332Z,43.40
2023-04-23T21:43:07.436Z,39.65
2023-04-23T21:45:34.420Z,44.90
2023-04-23T21:48:01.713Z,46.35
2023-04-23T21:50:30.098Z,44.45
2023-04-23T21:52:58.726Z,42.15
2023-04-23T21:55:26.910Z,47.80
2023-04-23T21:57:56.405Z,39.10
2023-04-23T22:00:25.508Z,53.60
2023-04-23T22:02:55.248Z,49.25
2023-04-23T22:05:23.827Z,50.33
2023-04-23T22:07:55.504Z,43.50
2023-04-23T22:10:23.216Z,41.70
2023-04-23T22:12:50.956Z,31.92
2023-04-23T22:15:19.481Z,34.75
2023-04-23T22:17:50.529Z,31.85
2023-04-23T22:20:19.221Z,52.55
2023-04-23T22:22:46.263Z,28.48
2023-04-23T22:25:13.287Z,33.00
2023-04-23T22:27:41.228Z,33.60
2023-04-23T22:30:10.173Z,27.58
2023-04-23T22:32:38.485Z,30.50
2023-04-23T22:35:06.974Z,27.10
2023-04-23T22:37:34.635Z,28.92
2023-04-23T22:40:02.157Z,26.85
2023-04-23T22:42:29.015Z,22.85
2023-04-23T22:44:55.864Z,14.98
2023-04-23T22:47:23.016Z,23.58
2023-04-23T22:49:50.082Z,23.85
2023-04-23T22:52:17.366Z,25.58
2023-04-23T22:54:44.417Z,21.45
2023-04-23T22:57:11.953Z,23.27
2023-04-23T22:59:42.134Z,23.88
2023-04-23T23:02:09.312Z,25.85
2023-04-23T23:04:38.593Z,25.42
2023-04-23T23:07:06.821Z,37.47
2023-04-23T23:09:33.717Z,37.35
2023-04-23T23:12:02.629Z,29.83
2023-04-23T23:14:29.975Z,19.85
2023-04-23T23:16:57.717Z,26.55
2023-04-23T23:19:27.204Z,29.60
2023-04-23T23:21:54.380Z,21.15
2023-04-23T23:24:22.952Z,20.63
2023-04-23T23:26:50.620Z,19.27
2023-04-23T23:29:17.659Z,18.67
2023-04-23T23:31:44.780Z,23.60
2023-04-23T23:34:12.489Z,22.25
2023-04-23T23:36:39.528Z,23.60
2023-04-23T23:39:06.975Z,16.15
2023-04-23T23:41:33.961Z,22.58
2023-04-23T23:44:01.130Z,19.45
2023-04-23T23:46:28.199Z,26.60
2023-04-23T23:48:55.584Z,23.02
2023-04-23T23:51:22.495Z,23.60
2023-04-23T23:53:49.401Z,23.38
2023-04-23T23:56:16.322Z,22.65
2023-04-23T23:58:43.235Z,23.77
